F/V Attalaya Berria — FHCB — position and weather

sailwx.info

Track history (hours):
 
Tides and Currents Weather Stations Pressure Air Temp Water Temp Dewpoint Dewpoint Depression Visibility Wind Speed Wind Dir Waves Ship Positions

F/V Attalaya Berria

Last reported at 2016-Dec-06 20:32 UTC. Time now 2016-Dec-06 21:58 UTC.
Position N 43°25' W 001°47'.

Length 26 m.

Type: Fishing. MMSI: 228315000.

Date/timePositionNaut miles runAvg speedWind from/ knotsBaromVisibWave heightAir tempDewpointWater temp
2016-Dec-06 20:32N 43°25' W 001°47'5 2.6
2016-Dec-06 18:33N 43°28' W 001°41'7 0.6
2016-Dec-06 06:33N 43°22' W 001°47'4 0.5
2016-Dec-05 21:28N 43°23' W 001°52'9 9.6
2016-Dec-05 20:32N 43°28' W 001°43'1 0.6
2016-Dec-05 19:33N 43°28' W 001°42'0 0.3
2016-Dec-05 18:34N 43°28' W 001°42'7 0.6
2016-Dec-05 07:13N 43°22' W 001°47'0 0.0
2016-Dec-05 06:33N 43°22' W 001°47'4 4.4
2016-Dec-05 05:33N 43°23' W 001°53'4 1.1
2016-Dec-05 02:15N 43°19' W 001°56'5 7.6
2016-Dec-05 01:32N 43°23' W 001°50'6 6.2
2016-Dec-05 00:32N 43°26' W 001°43'2 2.5
2016-Dec-04 23:33N 43°28' W 001°40'0 0.2
2016-Dec-04 22:33N 43°28' W 001°40'1 0.6
2016-Dec-04 21:33N 43°28' W 001°41'0 0.5
2016-Dec-04 20:33N 43°28' W 001°40'0 0.1
2016-Dec-04 19:33N 43°28' W 001°40'3 3.0
2016-Dec-04 18:33N 43°25' W 001°42'  
2016-Dec-01 05:33N 43°24' W 001°47'3 1.0
2016-Dec-01 02:19N 43°23' W 001°52'810.3
2016-Dec-01 01:33N 43°26' W 001°42'1 0.8
2016-Dec-01 00:33N 43°27' W 001°41'5 4.7
2016-Nov-30 23:33N 43°30' W 001°36'1 1.5
2016-Nov-30 22:33N 43°29' W 001°36'1 1.2
2016-Nov-30 21:33N 43°28' W 001°37'2 2.2
2016-Nov-30 20:33N 43°27' W 001°40'1 1.5
2016-Nov-30 19:33N 43°26' W 001°38'2 1.5
2016-Nov-30 18:33N 43°26' W 001°40'6 0.4
2016-Nov-30 04:07N 43°22' W 001°47'2 3.5
2016-Nov-30 03:33N 43°24' W 001°46'6 6.3
2016-Nov-30 02:34N 43°27' W 001°39'1 1.1
2016-Nov-30 01:33N 43°28' W 001°37'3 3.4
2016-Nov-30 00:33N 43°30' W 001°35'9 8.6
2016-Nov-29 23:33N 43°39' W 001°32'6 4.0
2016-Nov-29 22:05N 43°44' W 001°29'10 3.9
2016-Nov-29 19:27N 43°34' W 001°33'8 9.4
2016-Nov-29 18:33N 43°28' W 001°41'7 0.5
2016-Nov-29 05:07N 43°22' W 001°47'3 4.7
2016-Nov-29 04:34N 43°24' W 001°50'3 0.9
2016-Nov-29 01:23N 43°22' W 001°53'7 8.9
2016-Nov-29 00:34N 43°24' W 001°43'2 2.0
2016-Nov-28 23:33N 43°26' W 001°43'2 1.8
2016-Nov-28 22:34N 43°26' W 001°41'0 0.4
2016-Nov-28 21:34N 43°26' W 001°41'0 0.5
2016-Nov-28 20:33N 43°26' W 001°41'0 0.2
2016-Nov-28 19:33N 43°26' W 001°40'0 0.2
2016-Nov-28 18:34N 43°26' W 001°40'6 0.5
2016-Nov-28 06:23N 43°22' W 001°47'4 4.5
2016-Nov-28 05:33N 43°23' W 001°52'2 0.3
2016-Nov-28 00:32N 43°24' W 001°50'10 9.7
2016-Nov-27 23:33N 43°29' W 001°38'1 1.3
2016-Nov-27 22:33N 43°28' W 001°37'1 1.4
2016-Nov-27 21:33N 43°27' W 001°38'0 0.3
2016-Nov-27 20:33N 43°27' W 001°38'1 0.6
2016-Nov-27 19:33N 43°26' W 001°39'  
Track history (hours):
 
Tides and Currents Weather Stations Pressure Air Temp Water Temp Dewpoint Dewpoint Depression Visibility Wind Speed Wind Dir Waves Ship Positions

F/V Attalaya Berria

Last reported at 2016-Dec-06 20:32 UTC. Time now 2016-Dec-06 21:58 UTC.
Position N 43°25' W 001°47'.

Length 26 m.

Type: Fishing. MMSI: 228315000.

Date/timePositionNaut miles runAvg speedWind from/ knotsBaromVisibWave heightAir tempDewpointWater temp
2016-Dec-06 20:32N 43°25' W 001°47'5 2.6
2016-Dec-06 18:33N 43°28' W 001°41'7 0.6
2016-Dec-06 06:33N 43°22' W 001°47'4 0.5
2016-Dec-05 21:28N 43°23' W 001°52'9 9.6
2016-Dec-05 20:32N 43°28' W 001°43'1 0.6
2016-Dec-05 19:33N 43°28' W 001°42'0 0.3
2016-Dec-05 18:34N 43°28' W 001°42'7 0.6
2016-Dec-05 07:13N 43°22' W 001°47'0 0.0
2016-Dec-05 06:33N 43°22' W 001°47'4 4.4
2016-Dec-05 05:33N 43°23' W 001°53'4 1.1
2016-Dec-05 02:15N 43°19' W 001°56'5 7.6
2016-Dec-05 01:32N 43°23' W 001°50'6 6.2
2016-Dec-05 00:32N 43°26' W 001°43'2 2.5
2016-Dec-04 23:33N 43°28' W 001°40'0 0.2
2016-Dec-04 22:33N 43°28' W 001°40'1 0.6
2016-Dec-04 21:33N 43°28' W 001°41'0 0.5
2016-Dec-04 20:33N 43°28' W 001°40'0 0.1
2016-Dec-04 19:33N 43°28' W 001°40'3 3.0
2016-Dec-04 18:33N 43°25' W 001°42'  
2016-Dec-01 05:33N 43°24' W 001°47'3 1.0
2016-Dec-01 02:19N 43°23' W 001°52'810.3
2016-Dec-01 01:33N 43°26' W 001°42'1 0.8
2016-Dec-01 00:33N 43°27' W 001°41'5 4.7
2016-Nov-30 23:33N 43°30' W 001°36'1 1.5
2016-Nov-30 22:33N 43°29' W 001°36'1 1.2
2016-Nov-30 21:33N 43°28' W 001°37'2 2.2
2016-Nov-30 20:33N 43°27' W 001°40'1 1.5
2016-Nov-30 19:33N 43°26' W 001°38'2 1.5
2016-Nov-30 18:33N 43°26' W 001°40'6 0.4
2016-Nov-30 04:07N 43°22' W 001°47'2 3.5
2016-Nov-30 03:33N 43°24' W 001°46'6 6.3
2016-Nov-30 02:34N 43°27' W 001°39'1 1.1
2016-Nov-30 01:33N 43°28' W 001°37'3 3.4
2016-Nov-30 00:33N 43°30' W 001°35'9 8.6
2016-Nov-29 23:33N 43°39' W 001°32'6 4.0
2016-Nov-29 22:05N 43°44' W 001°29'10 3.9
2016-Nov-29 19:27N 43°34' W 001°33'8 9.4
2016-Nov-29 18:33N 43°28' W 001°41'7 0.5
2016-Nov-29 05:07N 43°22' W 001°47'3 4.7
2016-Nov-29 04:34N 43°24' W 001°50'3 0.9
2016-Nov-29 01:23N 43°22' W 001°53'7 8.9
2016-Nov-29 00:34N 43°24' W 001°43'2 2.0
2016-Nov-28 23:33N 43°26' W 001°43'2 1.8
2016-Nov-28 22:34N 43°26' W 001°41'0 0.4
2016-Nov-28 21:34N 43°26' W 001°41'0 0.5
2016-Nov-28 20:33N 43°26' W 001°41'0 0.2
2016-Nov-28 19:33N 43°26' W 001°40'0 0.2
2016-Nov-28 18:34N 43°26' W 001°40'6 0.5
2016-Nov-28 06:23N 43°22' W 001°47'4 4.5
2016-Nov-28 05:33N 43°23' W 001°52'2 0.3
2016-Nov-28 00:32N 43°24' W 001°50'10 9.7
2016-Nov-27 23:33N 43°29' W 001°38'1 1.3
2016-Nov-27 22:33N 43°28' W 001°37'1 1.4
2016-Nov-27 21:33N 43°27' W 001°38'0 0.3
2016-Nov-27 20:33N 43°27' W 001°38'1 0.6
2016-Nov-27 19:33N 43°26' W 001°39'  

Dump ship's entire track history